createdAt,value
2017-08-29T00:00:10.916Z,0
2017-08-29T00:00:51.386Z,0
2017-08-29T00:01:31.844Z,0
2017-08-29T00:02:12.291Z,0
2017-08-29T00:02:52.748Z,0
2017-08-29T00:03:33.202Z,0
2017-08-29T00:04:13.663Z,0
2017-08-29T00:04:54.117Z,0
2017-08-29T00:05:34.574Z,0
2017-08-29T00:06:15.027Z,0
2017-08-29T00:06:55.480Z,0
2017-08-29T00:07:35.933Z,0
2017-08-29T00:08:16.391Z,0
2017-08-29T00:08:56.840Z,0
2017-08-29T00:09:37.310Z,0
2017-08-29T00:10:17.761Z,0
2017-08-29T00:10:58.213Z,0
2017-08-29T00:11:38.665Z,0
2017-08-29T00:12:19.123Z,0
2017-08-29T00:12:59.583Z,0
2017-08-29T00:13:40.040Z,0
2017-08-29T00:14:20.507Z,0
2017-08-29T00:15:00.963Z,0
2017-08-29T00:15:41.415Z,0
2017-08-29T00:16:21.871Z,0
2017-08-29T00:17:02.412Z,0
2017-08-29T00:17:42.886Z,0
2017-08-29T00:18:23.342Z,0
2017-08-29T00:19:03.882Z,0
2017-08-29T00:19:44.369Z,0
2017-08-29T00:20:24.828Z,0
2017-08-29T00:21:05.284Z,0
2017-08-29T00:21:45.734Z,0
2017-08-29T00:22:26.405Z,0
2017-08-29T00:23:06.858Z,0
2017-08-29T00:23:47.317Z,0
2017-08-29T00:24:27.879Z,0
2017-08-29T00:25:08.334Z,0
2017-08-29T00:25:48.791Z,0
2017-08-29T00:26:29.254Z,0
2017-08-29T00:27:09.716Z,0
2017-08-29T00:27:50.168Z,0
2017-08-29T00:28:30.617Z,0
2017-08-29T00:29:11.140Z,0
2017-08-29T00:29:51.603Z,0
2017-08-29T00:30:32.071Z,0
2017-08-29T00:31:12.526Z,0
2017-08-29T00:31:53.014Z,0
2017-08-29T00:32:33.467Z,0
2017-08-29T00:33:13.916Z,0
2017-08-29T00:33:54.375Z,0
2017-08-29T00:34:34.830Z,0
2017-08-29T00:35:15.290Z,0
2017-08-29T00:35:55.750Z,0
2017-08-29T00:36:36.209Z,0
2017-08-29T00:37:16.661Z,0
2017-08-29T00:37:57.116Z,0
2017-08-29T00:38:37.564Z,0
2017-08-29T00:39:18.026Z,0
2017-08-29T00:39:58.480Z,0
2017-08-29T00:40:38.957Z,0
2017-08-29T00:41:19.417Z,0
2017-08-29T00:41:59.875Z,0
2017-08-29T00:42:40.338Z,0
2017-08-29T00:43:20.795Z,0
2017-08-29T00:44:01.250Z,0
2017-08-29T00:44:41.698Z,0
2017-08-29T00:45:22.250Z,0
2017-08-29T00:46:02.707Z,0
2017-08-29T00:46:43.147Z,0
2017-08-29T00:47:23.657Z,0
2017-08-29T00:48:04.046Z,0
2017-08-29T00:48:44.505Z,0
2017-08-29T00:49:25.072Z,0
2017-08-29T00:50:05.520Z,0
2017-08-29T00:50:45.981Z,0
2017-08-29T00:51:26.442Z,0
2017-08-29T00:52:06.893Z,0
2017-08-29T00:52:47.356Z,0
2017-08-29T00:53:27.813Z,0
2017-08-29T00:54:08.271Z,0
2017-08-29T00:54:48.728Z,0
2017-08-29T00:55:29.183Z,0
2017-08-29T00:56:09.652Z,0
2017-08-29T00:56:50.091Z,0
2017-08-29T00:57:30.550Z,0
2017-08-29T00:58:10.998Z,0
2017-08-29T00:58:51.447Z,0
2017-08-29T00:59:31.914Z,0
2017-08-29T01:00:12.364Z,0
2017-08-29T01:00:52.832Z,0
2017-08-29T01:01:33.294Z,0
2017-08-29T01:02:13.753Z,0
2017-08-29T01:02:54.209Z,0
2017-08-29T01:03:34.656Z,0
2017-08-29T01:04:15.113Z,0
2017-08-29T01:04:55.572Z,0
2017-08-29T01:05:36.033Z,0
2017-08-29T01:06:16.480Z,0
2017-08-29T01:06:56.926Z,0
2017-08-29T01:07:37.381Z,0
2017-08-29T01:08:17.831Z,0
2017-08-29T01:10:55.999Z,0
2017-08-29T01:11:36.447Z,0
2017-08-29T01:12:16.901Z,0
2017-08-29T01:12:57.349Z,0
2017-08-29T01:13:37.802Z,0
2017-08-29T01:14:18.264Z,0
2017-08-29T01:14:58.713Z,0
2017-08-29T01:15:39.164Z,0
2017-08-29T01:16:19.621Z,0
2017-08-29T01:17:00.076Z,0
2017-08-29T01:17:40.530Z,0
2017-08-29T01:18:20.986Z,0
2017-08-29T01:19:01.599Z,0
2017-08-29T01:19:42.000Z,0
2017-08-29T01:20:22.457Z,0
2017-08-29T01:21:02.913Z,0
2017-08-29T01:21:43.362Z,0
2017-08-29T01:22:23.829Z,0
2017-08-29T01:23:04.270Z,0
2017-08-29T01:23:44.721Z,0
2017-08-29T01:24:25.180Z,0
2017-08-29T01:25:05.627Z,0
2017-08-29T01:25:46.115Z,0
2017-08-29T01:26:26.529Z,0
2017-08-29T01:27:06.976Z,0
2017-08-29T01:27:47.424Z,0
2017-08-29T01:28:27.872Z,0
2017-08-29T01:29:08.336Z,0
2017-08-29T01:29:48.775Z,0
2017-08-29T01:30:29.223Z,0
2017-08-29T01:31:09.678Z,0
2017-08-29T01:31:50.129Z,0
2017-08-29T01:32:30.584Z,0
2017-08-29T01:33:11.028Z,0
2017-08-29T01:33:51.481Z,0
2017-08-29T01:34:31.948Z,0
2017-08-29T01:35:12.420Z,0
2017-08-29T01:35:52.876Z,0
2017-08-29T01:36:33.327Z,0
2017-08-29T01:37:13.790Z,0
2017-08-29T01:37:54.243Z,0
2017-08-29T01:38:34.702Z,0
2017-08-29T01:39:15.131Z,0
2017-08-29T01:39:55.580Z,0
2017-08-29T01:40:36.061Z,0
2017-08-29T01:41:16.505Z,0
2017-08-29T01:41:56.954Z,0
2017-08-29T01:42:37.411Z,0
2017-08-29T01:43:17.860Z,0
2017-08-29T01:43:58.307Z,0
2017-08-29T01:44:38.759Z,0
2017-08-29T01:45:19.218Z,0
2017-08-29T01:45:59.672Z,0
2017-08-29T01:46:40.133Z,0
2017-08-29T01:47:20.593Z,0
2017-08-29T01:48:01.051Z,0
2017-08-29T01:48:41.508Z,0
2017-08-29T01:49:21.968Z,0
2017-08-29T01:50:02.411Z,0
2017-08-29T01:50:42.853Z,0
2017-08-29T01:51:23.309Z,0
2017-08-29T01:52:03.764Z,0
2017-08-29T01:52:44.216Z,0
2017-08-29T01:53:24.667Z,0
2017-08-29T01:54:05.130Z,0
2017-08-29T01:54:45.583Z,0
2017-08-29T01:55:26.045Z,0
2017-08-29T01:56:06.493Z,0
2017-08-29T01:56:46.948Z,0
2017-08-29T01:57:27.395Z,0
2017-08-29T01:58:07.838Z,0
2017-08-29T01:58:48.395Z,0
2017-08-29T01:59:28.849Z,0
2017-08-29T02:00:09.307Z,0
2017-08-29T02:00:49.759Z,0
2017-08-29T02:01:30.264Z,0
2017-08-29T02:02:11.204Z,0
2017-08-29T02:02:52.616Z,0
2017-08-29T02:03:33.066Z,0
2017-08-29T02:04:13.524Z,0
2017-08-29T02:04:53.980Z,0
2017-08-29T02:05:34.434Z,0
2017-08-29T02:06:14.893Z,0
2017-08-29T02:06:55.371Z,0
2017-08-29T02:07:35.819Z,0
2017-08-29T02:08:16.258Z,0
2017-08-29T02:08:56.714Z,0
2017-08-29T02:09:37.169Z,0
2017-08-29T02:10:17.636Z,0
2017-08-29T02:10:58.090Z,0
2017-08-29T02:11:38.548Z,0
2017-08-29T02:12:18.993Z,0
2017-08-29T02:12:59.445Z,0
2017-08-29T02:13:39.920Z,0
2017-08-29T02:14:20.357Z,0
2017-08-29T02:15:01.690Z,0
2017-08-29T02:15:42.134Z,0
2017-08-29T02:16:22.581Z,0
2017-08-29T02:17:03.032Z,0
2017-08-29T02:17:43.485Z,0
2017-08-29T02:18:23.945Z,0
2017-08-29T02:19:04.389Z,0
2017-08-29T02:19:44.837Z,0
2017-08-29T02:20:25.289Z,0
2017-08-29T02:21:05.743Z,0
2017-08-29T02:21:46.198Z,0
2017-08-29T02:22:26.659Z,0
2017-08-29T02:23:07.108Z,0
2017-08-29T02:23:47.626Z,0
2017-08-29T02:24:28.078Z,0
2017-08-29T02:25:08.541Z,0
2017-08-29T02:25:48.994Z,0
2017-08-29T02:26:29.447Z,0
2017-08-29T02:27:09.927Z,0
2017-08-29T02:27:50.381Z,0
2017-08-29T02:28:30.838Z,0
2017-08-29T02:29:11.291Z,0
2017-08-29T02:29:51.744Z,0
2017-08-29T02:30:32.197Z,0
2017-08-29T02:31:12.677Z,0
2017-08-29T02:31:53.128Z,0
2017-08-29T02:32:33.584Z,0
2017-08-29T02:33:14.036Z,0
2017-08-29T02:33:54.492Z,0
2017-08-29T02:34:34.935Z,0
2017-08-29T02:35:15.387Z,0
2017-08-29T02:35:55.844Z,0
2017-08-29T02:36:36.293Z,0
2017-08-29T02:37:16.748Z,0
2017-08-29T02:37:57.212Z,0
2017-08-29T02:38:37.662Z,0
2017-08-29T02:39:18.118Z,0
2017-08-29T02:39:58.585Z,0
2017-08-29T02:40:39.035Z,0
2017-08-29T02:41:19.502Z,0
2017-08-29T02:41:59.954Z,0
2017-08-29T02:42:40.404Z,0
2017-08-29T02:43:20.918Z,0
2017-08-29T02:44:01.375Z,0
2017-08-29T02:44:41.838Z,0
2017-08-29T02:45:22.293Z,0
2017-08-29T02:46:02.759Z,0
2017-08-29T02:46:43.202Z,0
2017-08-29T02:47:23.655Z,0
2017-08-29T02:48:04.130Z,0
2017-08-29T02:48:44.590Z,0
2017-08-29T02:49:25.035Z,0
2017-08-29T02:50:05.481Z,0
2017-08-29T02:50:45.943Z,0
2017-08-29T02:51:26.387Z,0
2017-08-29T02:52:06.837Z,0
2017-08-29T02:52:47.293Z,0
2017-08-29T02:53:27.753Z,0
2017-08-29T02:54:08.214Z,0
2017-08-29T02:54:48.674Z,0
2017-08-29T02:57:06.615Z,0
2017-08-29T02:57:47.066Z,0
2017-08-29T02:58:27.514Z,0
2017-08-29T02:59:07.965Z,0
2017-08-29T02:59:48.431Z,0
2017-08-29T03:00:28.876Z,0
2017-08-29T03:01:09.353Z,0
2017-08-29T03:01:49.789Z,0
2017-08-29T03:02:30.243Z,0
2017-08-29T03:03:10.700Z,0
2017-08-29T03:03:51.152Z,0
2017-08-29T03:04:31.613Z,0
2017-08-29T03:05:12.060Z,0
2017-08-29T03:05:52.515Z,0
2017-08-29T03:06:32.978Z,0
2017-08-29T03:07:13.432Z,0
2017-08-29T03:07:54.912Z,0
2017-08-29T03:08:35.368Z,0
2017-08-29T03:09:15.828Z,0
2017-08-29T03:09:56.287Z,0
2017-08-29T03:10:36.738Z,0
2017-08-29T03:11:17.181Z,0
2017-08-29T03:11:57.634Z,0
2017-08-29T03:12:38.083Z,0
2017-08-29T03:13:18.545Z,0
2017-08-29T03:13:58.987Z,0
2017-08-29T03:14:39.443Z,0
2017-08-29T03:15:19.893Z,0
2017-08-29T03:16:00.353Z,0
2017-08-29T03:16:40.809Z,0
2017-08-29T03:17:21.321Z,0
2017-08-29T03:18:01.771Z,0
2017-08-29T03:18:42.228Z,0
2017-08-29T03:19:22.710Z,0
2017-08-29T03:20:03.164Z,0
2017-08-29T03:20:43.622Z,0
2017-08-29T03:23:11.789Z,0
2017-08-29T03:23:52.239Z,0
2017-08-29T03:24:32.691Z,0
2017-08-29T03:25:13.171Z,0
2017-08-29T03:25:53.630Z,0
2017-08-29T03:26:34.079Z,0
2017-08-29T03:27:14.655Z,0
2017-08-29T03:27:55.104Z,0
2017-08-29T03:28:35.556Z,0
2017-08-29T03:29:16.007Z,0
2017-08-29T03:29:56.467Z,0
2017-08-29T03:30:36.930Z,0
2017-08-29T03:31:17.364Z,0
2017-08-29T03:31:57.831Z,0
2017-08-29T03:32:38.279Z,0
2017-08-29T03:33:18.734Z,0
2017-08-29T03:33:59.193Z,0
2017-08-29T03:34:39.639Z,0
2017-08-29T03:35:20.099Z,0
2017-08-29T03:36:00.562Z,0
2017-08-29T03:36:41.017Z,0
2017-08-29T03:37:21.471Z,0
2017-08-29T03:38:01.928Z,0
2017-08-29T03:38:42.383Z,0
2017-08-29T03:39:22.835Z,0
2017-08-29T03:40:03.296Z,0
2017-08-29T03:40:43.751Z,0
2017-08-29T03:41:24.210Z,0
2017-08-29T03:42:04.663Z,0
2017-08-29T03:42:45.129Z,0
2017-08-29T03:43:25.575Z,0
2017-08-29T03:44:06.028Z,0
2017-08-29T03:44:46.489Z,0
2017-08-29T03:45:26.952Z,0
2017-08-29T03:46:07.413Z,0
2017-08-29T03:46:47.855Z,0
2017-08-29T03:47:28.317Z,0
2017-08-29T03:48:08.772Z,0
2017-08-29T03:48:49.212Z,0
2017-08-29T03:49:29.675Z,0
2017-08-29T03:50:10.119Z,0
2017-08-29T03:50:50.579Z,0
2017-08-29T03:51:31.029Z,0
2017-08-29T03:52:11.547Z,0
2017-08-29T03:52:51.998Z,0
2017-08-29T03:53:32.450Z,0
2017-08-29T03:54:12.896Z,0
2017-08-29T03:54:53.350Z,0
2017-08-29T03:55:33.815Z,0
2017-08-29T03:56:14.268Z,0
2017-08-29T03:56:54.718Z,0
2017-08-29T03:57:35.177Z,0
2017-08-29T03:58:15.627Z,0
2017-08-29T03:58:56.087Z,0
2017-08-29T03:59:36.549Z,0
2017-08-29T04:00:16.984Z,0
2017-08-29T04:00:57.430Z,0
2017-08-29T04:01:37.892Z,0
2017-08-29T04:02:18.346Z,0
2017-08-29T04:02:58.797Z,0
2017-08-29T04:03:39.245Z,0
2017-08-29T04:04:19.708Z,0
2017-08-29T04:05:00.168Z,0
2017-08-29T04:05:40.628Z,0
2017-08-29T04:06:21.085Z,0
2017-08-29T04:07:01.537Z,0
2017-08-29T04:07:41.976Z,0
2017-08-29T04:08:22.435Z,0
2017-08-29T04:09:02.887Z,0
2017-08-29T04:09:43.337Z,0
2017-08-29T04:10:23.796Z,0
2017-08-29T04:11:04.249Z,0
2017-08-29T04:11:44.704Z,0
2017-08-29T04:12:25.156Z,0
2017-08-29T04:13:05.612Z,0
2017-08-29T04:15:43.774Z,0
2017-08-29T04:16:24.219Z,0
2017-08-29T04:17:04.673Z,0
2017-08-29T04:17:45.133Z,0
2017-08-29T04:18:25.581Z,0
2017-08-29T04:19:06.126Z,0
2017-08-29T04:19:46.577Z,0
2017-08-29T04:20:27.041Z,0
2017-08-29T04:21:07.502Z,0
2017-08-29T04:21:47.954Z,0
2017-08-29T04:22:28.402Z,0
2017-08-29T04:23:08.863Z,0
2017-08-29T04:23:49.324Z,0
2017-08-29T04:24:29.772Z,0
2017-08-29T04:25:10.232Z,0
2017-08-29T04:25:50.679Z,0
2017-08-29T04:26:31.133Z,0
2017-08-29T04:27:11.585Z,0
2017-08-29T04:27:52.058Z,0
2017-08-29T04:28:32.514Z,0
2017-08-29T04:29:12.968Z,0
2017-08-29T04:29:53.425Z,0
2017-08-29T04:30:33.878Z,0
2017-08-29T04:31:14.330Z,0
2017-08-29T04:31:54.795Z,0
2017-08-29T04:32:35.260Z,0
2017-08-29T04:33:15.698Z,0
2017-08-29T04:33:56.154Z,0
2017-08-29T04:34:36.606Z,0
2017-08-29T04:35:17.053Z,0
2017-08-29T04:35:57.510Z,0
2017-08-29T04:36:37.955Z,0
2017-08-29T04:37:18.421Z,0
2017-08-29T04:37:58.880Z,0
2017-08-29T04:38:39.334Z,0
2017-08-29T04:39:19.789Z,0
2017-08-29T04:40:00.244Z,0
2017-08-29T04:40:40.729Z,0
2017-08-29T04:41:21.149Z,0
2017-08-29T04:42:01.666Z,0
2017-08-29T04:42:42.138Z,0
2017-08-29T04:43:22.597Z,0
2017-08-29T04:44:03.061Z,0
2017-08-29T04:44:43.539Z,0
2017-08-29T04:45:23.995Z,0
2017-08-29T04:46:04.435Z,0
2017-08-29T04:46:44.891Z,0
2017-08-29T04:47:25.352Z,0
2017-08-29T04:48:05.803Z,0
2017-08-29T04:48:46.245Z,0
2017-08-29T04:49:26.700Z,0
2017-08-29T04:50:07.161Z,0
2017-08-29T04:50:47.620Z,0
2017-08-29T04:51:28.072Z,0
2017-08-29T04:52:08.530Z,0
2017-08-29T04:52:48.976Z,0
2017-08-29T04:55:01.749Z,0
2017-08-29T04:55:42.202Z,0
2017-08-29T04:56:22.641Z,0
2017-08-29T04:57:03.089Z,0
2017-08-29T04:57:43.538Z,0
2017-08-29T04:58:23.997Z,0
2017-08-29T04:59:04.456Z,0
2017-08-29T04:59:44.906Z,0
2017-08-29T05:00:25.354Z,0
2017-08-29T05:01:05.813Z,0
2017-08-29T05:01:46.321Z,0
2017-08-29T05:02:26.884Z,0
2017-08-29T05:03:07.326Z,0
2017-08-29T05:03:47.769Z,0
2017-08-29T05:04:28.222Z,0
2017-08-29T05:05:08.672Z,0
2017-08-29T05:05:49.125Z,0
2017-08-29T05:06:29.585Z,5
2017-08-29T05:07:10.043Z,5
2017-08-29T05:07:50.496Z,5
2017-08-29T05:08:30.949Z,5
2017-08-29T05:09:11.408Z,5
2017-08-29T05:09:51.863Z,5
2017-08-29T05:10:32.319Z,5
2017-08-29T05:11:12.777Z,5
2017-08-29T05:11:53.246Z,5
2017-08-29T05:12:33.699Z,5
2017-08-29T05:13:14.157Z,5
2017-08-29T05:13:54.626Z,5
2017-08-29T05:14:35.087Z,5
2017-08-29T05:15:15.521Z,5
2017-08-29T05:15:55.984Z,5
2017-08-29T05:16:36.438Z,5
2017-08-29T05:17:16.884Z,5
2017-08-29T05:17:57.340Z,5
2017-08-29T05:18:37.798Z,5
2017-08-29T05:19:18.252Z,5
2017-08-29T05:19:58.712Z,5
2017-08-29T05:20:39.169Z,5
2017-08-29T05:21:19.628Z,5
2017-08-29T05:22:00.077Z,5
2017-08-29T05:22:40.526Z,5
2017-08-29T05:23:20.973Z,5
2017-08-29T05:24:01.420Z,5
2017-08-29T05:24:41.872Z,5
2017-08-29T05:25:22.338Z,5
2017-08-29T05:26:02.807Z,5
2017-08-29T05:26:43.266Z,5
2017-08-29T05:27:23.718Z,5
2017-08-29T05:28:04.176Z,5
2017-08-29T05:28:44.633Z,5
2017-08-29T05:29:25.101Z,5
2017-08-29T05:30:05.553Z,5
2017-08-29T05:30:46.012Z,5
2017-08-29T05:31:26.610Z,5
2017-08-29T05:32:07.065Z,5
2017-08-29T05:32:47.519Z,5
2017-08-29T05:33:27.972Z,5
2017-08-29T05:34:08.441Z,10
2017-08-29T05:34:48.900Z,10
2017-08-29T05:35:29.354Z,10
2017-08-29T05:36:09.810Z,10
2017-08-29T05:36:50.276Z,10
2017-08-29T05:37:30.730Z,10
2017-08-29T05:38:11.186Z,10
2017-08-29T05:38:51.640Z,10
2017-08-29T05:39:32.098Z,10
2017-08-29T05:40:12.555Z,10
2017-08-29T05:40:53.013Z,10
2017-08-29T05:41:33.464Z,10
2017-08-29T05:42:13.916Z,10
2017-08-29T05:42:54.374Z,10
2017-08-29T05:43:34.827Z,10
2017-08-29T05:44:15.284Z,10
2017-08-29T05:44:55.745Z,10
2017-08-29T05:45:36.203Z,15
2017-08-29T05:46:16.659Z,15
2017-08-29T05:46:57.117Z,15
2017-08-29T05:47:37.572Z,15
2017-08-29T05:48:18.040Z,15
2017-08-29T05:48:58.520Z,15
2017-08-29T05:49:38.968Z,15
2017-08-29T05:50:19.423Z,15
2017-08-29T05:50:59.894Z,15
2017-08-29T05:51:40.347Z,15
2017-08-29T05:52:20.796Z,15
2017-08-29T05:53:01.253Z,15
2017-08-29T05:53:41.703Z,15
2017-08-29T05:54:22.169Z,15
2017-08-29T05:55:02.626Z,15
2017-08-29T05:55:43.082Z,20
2017-08-29T05:56:23.538Z,20
2017-08-29T05:57:03.987Z,20
2017-08-29T05:57:44.445Z,20
2017-08-29T05:58:24.890Z,20
2017-08-29T05:59:05.344Z,20
2017-08-29T05:59:45.798Z,20
2017-08-29T06:00:26.254Z,20
2017-08-29T06:01:06.709Z,20
2017-08-29T06:01:47.159Z,20
2017-08-29T06:02:27.609Z,20
2017-08-29T06:03:08.061Z,20
2017-08-29T06:03:48.516Z,20
2017-08-29T06:04:28.979Z,20
2017-08-29T06:05:09.433Z,20
2017-08-29T06:05:49.884Z,20
2017-08-29T06:06:30.337Z,20
2017-08-29T06:07:10.793Z,20
2017-08-29T06:07:51.246Z,20
2017-08-29T06:08:31.702Z,20
2017-08-29T06:09:12.187Z,25
2017-08-29T06:09:52.643Z,25
2017-08-29T06:10:33.083Z,25
2017-08-29T06:11:13.540Z,25
2017-08-29T06:11:53.996Z,25
2017-08-29T06:12:34.447Z,25
2017-08-29T06:13:14.900Z,25
2017-08-29T06:13:55.358Z,25
2017-08-29T06:14:35.807Z,25
2017-08-29T06:15:16.262Z,25
2017-08-29T06:15:56.753Z,25
2017-08-29T06:16:37.186Z,25
2017-08-29T06:17:17.639Z,25
2017-08-29T06:17:58.094Z,25
2017-08-29T06:18:38.570Z,25
2017-08-29T06:19:19.012Z,25
2017-08-29T06:19:59.444Z,30
2017-08-29T06:20:39.898Z,30
2017-08-29T06:21:20.352Z,30
2017-08-29T06:22:00.805Z,25
2017-08-29T06:22:41.261Z,25
2017-08-29T06:23:21.717Z,25
2017-08-29T06:24:02.178Z,25
2017-08-29T06:24:42.633Z,25
2017-08-29T06:25:23.085Z,25
2017-08-29T06:26:03.539Z,30
2017-08-29T06:26:43.995Z,30
2017-08-29T06:27:24.602Z,30
2017-08-29T06:28:05.055Z,30
2017-08-29T06:28:45.497Z,35
2017-08-29T06:29:25.966Z,35
2017-08-29T06:30:06.413Z,35
2017-08-29T06:30:46.863Z,35
2017-08-29T06:31:27.307Z,35
2017-08-29T06:32:07.760Z,35
2017-08-29T06:32:48.218Z,35
2017-08-29T06:33:28.682Z,35
2017-08-29T06:34:09.169Z,35
2017-08-29T06:34:49.622Z,35
2017-08-29T06:35:30.077Z,40
2017-08-29T06:36:10.529Z,40
2017-08-29T06:36:50.986Z,40
2017-08-29T06:37:31.444Z,40
2017-08-29T06:38:11.898Z,40
2017-08-29T06:38:52.475Z,40
2017-08-29T06:39:32.854Z,40
2017-08-29T06:40:13.318Z,40
2017-08-29T06:40:53.771Z,40
2017-08-29T06:41:34.235Z,40
2017-08-29T06:42:14.695Z,40
2017-08-29T06:44:47.759Z,45
2017-08-29T06:45:28.211Z,45
2017-08-29T06:46:08.724Z,45
2017-08-29T06:46:49.182Z,45
2017-08-29T06:47:29.627Z,50
2017-08-29T06:48:10.076Z,50
2017-08-29T06:48:50.537Z,50
2017-08-29T06:49:30.987Z,50
2017-08-29T06:50:11.437Z,50
2017-08-29T06:50:51.888Z,50
2017-08-29T06:51:32.336Z,50
2017-08-29T06:52:12.794Z,50
2017-08-29T06:52:53.246Z,50
2017-08-29T06:53:33.703Z,50
2017-08-29T06:54:14.152Z,55
2017-08-29T06:54:54.606Z,55
2017-08-29T06:55:35.066Z,55
2017-08-29T06:56:15.515Z,55
2017-08-29T06:56:55.968Z,55
2017-08-29T06:57:36.424Z,55
2017-08-29T06:58:16.869Z,55
2017-08-29T06:58:57.322Z,55
2017-08-29T06:59:37.772Z,55
2017-08-29T07:00:18.218Z,55
2017-08-29T07:00:58.675Z,55
2017-08-29T07:01:39.130Z,60
2017-08-29T07:02:19.584Z,60
2017-08-29T07:03:00.048Z,60
2017-08-29T07:03:40.495Z,60
2017-08-29T07:04:20.949Z,60
2017-08-29T07:05:01.399Z,60
2017-08-29T07:05:41.893Z,60
2017-08-29T07:06:22.425Z,65
2017-08-29T07:07:02.883Z,65
2017-08-29T07:07:43.332Z,65
2017-08-29T07:08:23.860Z,65
2017-08-29T07:09:04.315Z,65
2017-08-29T07:09:44.774Z,65
2017-08-29T07:10:25.237Z,65
2017-08-29T07:11:05.689Z,60
2017-08-29T07:11:46.138Z,60
2017-08-29T07:12:26.584Z,55
2017-08-29T07:13:07.191Z,55
2017-08-29T07:13:47.632Z,55
2017-08-29T07:14:28.091Z,55
2017-08-29T07:15:08.555Z,60
2017-08-29T07:15:48.984Z,65
2017-08-29T07:16:29.434Z,70
2017-08-29T07:17:09.883Z,70
2017-08-29T07:17:50.328Z,75
2017-08-29T07:18:30.782Z,75
2017-08-29T07:19:11.312Z,75
2017-08-29T07:19:51.750Z,75
2017-08-29T07:20:32.215Z,75
2017-08-29T07:21:12.675Z,75
2017-08-29T07:21:53.124Z,75
2017-08-29T07:22:33.582Z,75
2017-08-29T07:23:14.033Z,80
2017-08-29T07:23:54.491Z,80
2017-08-29T07:24:34.958Z,80
2017-08-29T07:25:15.393Z,80
2017-08-29T07:25:55.844Z,80
2017-08-29T07:26:36.308Z,80
2017-08-29T07:27:16.756Z,80
2017-08-29T07:27:57.203Z,80
2017-08-29T07:28:37.656Z,80
2017-08-29T07:29:18.090Z,85
2017-08-29T07:29:58.562Z,85
2017-08-29T07:30:38.985Z,85
2017-08-29T07:31:19.450Z,85
2017-08-29T07:31:59.905Z,85
2017-08-29T07:32:40.354Z,85
2017-08-29T07:33:20.815Z,85
2017-08-29T07:34:01.262Z,85
2017-08-29T07:34:41.729Z,85
2017-08-29T07:35:22.185Z,90
2017-08-29T07:36:02.644Z,90
2017-08-29T07:36:43.098Z,90
2017-08-29T07:37:23.552Z,90
2017-08-29T07:38:04.009Z,90
2017-08-29T07:38:44.467Z,90
2017-08-29T07:39:24.929Z,90
2017-08-29T07:40:05.384Z,90
2017-08-29T07:40:45.834Z,95
2017-08-29T07:41:26.432Z,95
2017-08-29T07:42:06.852Z,95
2017-08-29T07:42:47.311Z,95
2017-08-29T07:43:27.762Z,95
2017-08-29T07:44:08.206Z,95
2017-08-29T07:44:48.664Z,95
2017-08-29T07:45:29.115Z,95
2017-08-29T07:46:09.578Z,95
2017-08-29T07:46:50.025Z,95
2017-08-29T07:47:30.477Z,100
2017-08-29T07:48:10.932Z,100
2017-08-29T07:48:51.385Z,100
2017-08-29T07:49:31.841Z,100
2017-08-29T07:50:12.301Z,100
2017-08-29T07:50:52.764Z,100
2017-08-29T07:51:33.225Z,100
2017-08-29T07:52:13.683Z,100
2017-08-29T07:52:54.131Z,100
2017-08-29T07:53:34.574Z,105
2017-08-29T07:54:15.028Z,105
2017-08-29T07:54:55.488Z,105
2017-08-29T07:55:35.943Z,105
2017-08-29T07:56:16.391Z,105
2017-08-29T07:56:56.850Z,105
2017-08-29T07:57:37.306Z,105
2017-08-29T07:58:17.756Z,105
2017-08-29T07:58:58.206Z,105
2017-08-29T07:59:38.659Z,110
2017-08-29T08:00:19.118Z,110
2017-08-29T08:00:59.566Z,110
2017-08-29T08:01:40.019Z,110
2017-08-29T08:02:20.484Z,110
2017-08-29T08:03:01.033Z,110
2017-08-29T08:03:41.387Z,110
2017-08-29T08:04:21.821Z,110
2017-08-29T08:05:02.352Z,110
2017-08-29T08:05:42.764Z,115
2017-08-29T08:06:23.219Z,115
2017-08-29T08:07:03.673Z,115
2017-08-29T08:07:44.131Z,115
2017-08-29T08:08:24.641Z,115
2017-08-29T08:09:05.098Z,115
2017-08-29T08:09:45.556Z,115
2017-08-29T08:10:26.017Z,115
2017-08-29T08:11:06.476Z,115
2017-08-29T08:11:46.926Z,115
2017-08-29T08:14:04.922Z,120
2017-08-29T08:14:45.379Z,120
2017-08-29T08:15:25.836Z,120
2017-08-29T08:16:06.293Z,120
2017-08-29T08:16:46.743Z,120
2017-08-29T08:17:27.201Z,120
2017-08-29T08:18:07.653Z,120
2017-08-29T08:18:48.148Z,120
2017-08-29T08:19:28.556Z,125
2017-08-29T08:20:09.012Z,125
2017-08-29T08:20:49.468Z,125
2017-08-29T08:21:29.920Z,125
2017-08-29T08:22:10.418Z,125
2017-08-29T08:22:50.879Z,125
2017-08-29T08:23:31.335Z,125
2017-08-29T08:24:11.818Z,125
2017-08-29T08:24:52.275Z,125
2017-08-29T08:25:32.727Z,125
2017-08-29T08:26:13.180Z,130
2017-08-29T08:26:53.630Z,130
2017-08-29T08:27:34.088Z,130
2017-08-29T08:28:14.541Z,130
2017-08-29T08:28:54.994Z,130
2017-08-29T08:29:35.461Z,130
2017-08-29T08:30:15.915Z,130
2017-08-29T08:30:56.369Z,130
2017-08-29T08:31:36.826Z,130
2017-08-29T08:32:17.286Z,130
2017-08-29T08:32:57.730Z,130
2017-08-29T08:33:38.188Z,135
2017-08-29T08:34:18.653Z,135
2017-08-29T08:34:59.105Z,135
2017-08-29T08:35:39.557Z,135
2017-08-29T08:36:20.015Z,135
2017-08-29T08:37:00.475Z,135
2017-08-29T08:37:40.933Z,135
2017-08-29T08:38:21.385Z,135
2017-08-29T08:39:01.845Z,135
2017-08-29T08:39:42.296Z,135
2017-08-29T08:40:22.751Z,135
2017-08-29T08:41:03.204Z,135
2017-08-29T08:41:43.673Z,140
2017-08-29T08:44:11.790Z,140
2017-08-29T08:44:52.249Z,140
2017-08-29T08:45:32.699Z,140
2017-08-29T08:46:13.146Z,140
2017-08-29T08:46:53.623Z,140
2017-08-29T08:47:34.074Z,140
2017-08-29T08:48:14.524Z,140
2017-08-29T08:48:54.977Z,140
2017-08-29T08:49:35.438Z,145
2017-08-29T08:50:15.896Z,145
2017-08-29T08:50:56.344Z,145
2017-08-29T08:51:36.794Z,145
2017-08-29T08:52:17.244Z,145
2017-08-29T08:52:57.700Z,145
2017-08-29T08:53:38.174Z,145
2017-08-29T08:54:18.621Z,145
2017-08-29T08:54:59.081Z,145
2017-08-29T08:55:39.531Z,145
2017-08-29T08:56:19.994Z,145
2017-08-29T08:57:00.442Z,145
2017-08-29T08:57:40.897Z,145
2017-08-29T08:58:21.341Z,150
2017-08-29T08:59:01.792Z,150
2017-08-29T08:59:42.247Z,150
2017-08-29T09:00:22.701Z,150
2017-08-29T09:01:03.155Z,150
2017-08-29T09:01:43.614Z,150
2017-08-29T09:02:24.073Z,150
2017-08-29T09:03:04.519Z,150
2017-08-29T09:03:44.976Z,150
2017-08-29T09:04:25.428Z,150
2017-08-29T09:05:05.875Z,150
2017-08-29T09:05:46.335Z,150
2017-08-29T09:06:26.802Z,150
2017-08-29T09:07:07.260Z,150
2017-08-29T09:07:47.709Z,150
2017-08-29T09:08:28.174Z,150
2017-08-29T09:09:08.652Z,150
2017-08-29T09:09:49.081Z,155
2017-08-29T09:10:29.535Z,155
2017-08-29T09:11:09.995Z,155
2017-08-29T09:11:50.461Z,155
2017-08-29T09:12:30.920Z,155
2017-08-29T09:13:11.418Z,155
2017-08-29T09:13:51.876Z,155
2017-08-29T09:14:32.330Z,155
2017-08-29T09:15:12.797Z,155
2017-08-29T09:15:53.232Z,155
2017-08-29T09:16:33.688Z,155
2017-08-29T09:17:14.139Z,155
2017-08-29T09:17:54.594Z,155
2017-08-29T09:18:35.053Z,155
2017-08-29T09:19:15.499Z,160
2017-08-29T09:19:55.956Z,160
2017-08-29T09:20:36.422Z,160
2017-08-29T09:21:16.862Z,160
2017-08-29T09:21:57.318Z,160
2017-08-29T09:22:37.775Z,160
2017-08-29T09:23:18.225Z,140
2017-08-29T09:23:58.684Z,125
2017-08-29T09:24:39.142Z,125
2017-08-29T09:25:19.588Z,140
2017-08-29T09:26:00.052Z,140
2017-08-29T09:26:40.514Z,145
2017-08-29T09:27:20.972Z,150
2017-08-29T09:28:01.443Z,150
2017-08-29T09:28:41.888Z,150
2017-08-29T09:29:22.345Z,160
2017-08-29T09:30:02.849Z,165
2017-08-29T09:30:43.315Z,160
2017-08-29T09:33:21.544Z,160
2017-08-29T09:34:02.001Z,165
2017-08-29T09:34:42.456Z,165
2017-08-29T09:35:22.916Z,165
2017-08-29T09:36:03.373Z,165
2017-08-29T09:36:43.831Z,165
2017-08-29T09:37:24.285Z,165
2017-08-29T09:38:04.736Z,165
2017-08-29T09:38:45.195Z,165
2017-08-29T09:39:25.653Z,165
2017-08-29T09:40:06.101Z,165
2017-08-29T09:40:46.592Z,165
2017-08-29T09:41:27.039Z,165
2017-08-29T09:42:07.511Z,165
2017-08-29T09:42:47.945Z,165
2017-08-29T09:43:28.403Z,165
2017-08-29T09:44:08.859Z,165
2017-08-29T09:44:49.312Z,165
2017-08-29T09:45:29.765Z,165
2017-08-29T09:46:10.221Z,170
2017-08-29T09:46:50.684Z,170
2017-08-29T09:47:31.138Z,170
2017-08-29T09:48:11.580Z,170
2017-08-29T09:48:52.036Z,170
2017-08-29T09:49:32.488Z,165
2017-08-29T09:50:12.946Z,160
2017-08-29T09:50:53.389Z,160
2017-08-29T09:51:33.852Z,155
2017-08-29T09:52:14.309Z,155
2017-08-29T09:52:54.759Z,150
2017-08-29T09:53:35.206Z,150
2017-08-29T09:54:15.665Z,150
2017-08-29T09:54:56.117Z,145
2017-08-29T09:55:36.569Z,145
2017-08-29T09:56:17.026Z,140
2017-08-29T09:56:57.478Z,145
2017-08-29T09:57:37.932Z,155
2017-08-29T09:58:18.385Z,160
2017-08-29T09:58:58.841Z,165
2017-08-29T09:59:39.298Z,165
2017-08-29T10:00:19.754Z,170